Time;durP1;ratioP1;P1;durP2;ratioP2;P2;SDS_P1;SDS_P2;PMS_P1;PMS_P2;Temp;Humidity;BMP_temperature;BMP_pressure;BME280_temperature;BME280_humidity;BME280_pressure;Samples;Min_cycle;Max_cycle;Signal;HPM_P1;HPM_P2
2023/11/01 00:02:03;;;;;;;11.00;7.47;;;;;;;;;;5093378;28;20494;-67
2023/11/01 00:04:30;;;;;;;14.70;7.53;;;;;;;;;;5103586;28;20509;-67
2023/11/01 00:06:58;;;;;;;14.00;8.53;;;;;;;;;;5105778;28;20618;-67
2023/11/01 00:09:24;;;;;;;12.30;7.10;;;;;;;;;;5092865;28;20497;-67
2023/11/01 00:11:51;;;;;;;9.33;6.90;;;;;;;;;;5106299;28;20485;-68
2023/11/01 00:14:17;;;;;;;10.93;6.80;;;;;;;;;;5087216;28;20726;-69
2023/11/01 00:16:44;;;;;;;10.10;8.00;;;;;;;;;;5108678;28;20530;-67
2023/11/01 00:19:10;;;;;;;8.67;6.87;;;;;;;;;;5107356;28;20481;-67
2023/11/01 00:21:36;;;;;;;10.80;7.87;;;;;;;;;;5103438;28;20516;-67
2023/11/01 00:24:05;;;;;;;12.03;7.67;;;;;;;;;;5101559;28;20553;-68
2023/11/01 00:26:31;;;;;;;11.50;7.40;;;;;;;;;;5097793;28;20491;-68
2023/11/01 00:28:57;;;;;;;13.40;8.57;;;;;;;;;;5109247;28;21044;-67
2023/11/01 00:31:24;;;;;;;13.13;8.23;;;;;;;;;;5097774;28;20455;-67
2023/11/01 00:33:50;;;;;;;10.30;7.20;;;;;;;;;;5087893;28;20575;-67
2023/11/01 00:36:17;;;;;;;15.80;8.63;;;;;;;;;;5094287;28;20451;-66
2023/11/01 00:38:43;;;;;;;17.93;10.03;;;;;;;;;;5107453;28;20629;-70
2023/11/01 00:41:11;;;;;;;11.40;8.60;;;;;;;;;;5110510;28;20461;-68
2023/11/01 00:43:38;;;;;;;13.43;9.17;;;;;;;;;;5091173;28;20439;-68
2023/11/01 00:46:04;;;;;;;15.60;9.23;;;;;;;;;;5099882;28;20489;-68
2023/11/01 00:48:31;;;;;;;13.03;9.77;;;;;;;;;;5097803;28;20982;-67
2023/11/01 00:50:57;;;;;;;12.43;9.63;;;;;;;;;;5097835;28;20507;-67
2023/11/01 00:53:23;;;;;;;14.83;9.50;;;;;;;;;;5089150;28;20519;-67
2023/11/01 00:55:50;;;;;;;14.50;9.77;;;;;;;;;;5099391;28;20506;-66
2023/11/01 00:58:18;;;;;;;15.17;10.83;;;;;;;;;;5092364;28;20913;-68
2023/11/01 01:00:44;;;;;;;15.07;10.87;;;;;;;;;;5101265;28;20542;-68
2023/11/01 01:03:10;;;;;;;12.90;9.90;;;;;;;;;;5104258;28;20527;-66
2023/11/01 01:05:37;;;;;;;16.67;10.33;;;;;;;;;;5109587;28;20542;-67
2023/11/01 01:08:03;;;;;;;16.77;10.47;;;;;;;;;;5106296;28;20546;-68
2023/11/01 01:10:31;;;;;;;17.43;11.47;;;;;;;;;;5098893;28;20518;-67
2023/11/01 01:12:58;;;;;;;13.80;10.97;;;;;;;;;;5102378;28;21644;-68
2023/11/01 01:15:25;;;;;;;18.70;11.47;;;;;;;;;;5108752;28;20438;-68
2023/11/01 01:17:52;;;;;;;16.70;12.10;;;;;;;;;;5102087;28;20483;-68
2023/11/01 01:20:19;;;;;;;15.83;11.37;;;;;;;;;;5098676;28;20537;-68
2023/11/01 01:22:45;;;;;;;18.87;12.23;;;;;;;;;;5106523;28;20545;-68
2023/11/01 01:25:12;;;;;;;17.70;12.17;;;;;;;;;;5104794;28;20566;-68
2023/11/01 01:27:41;;;;;;;16.37;12.20;;;;;;;;;;5103944;28;20739;-68
2023/11/01 01:30:08;;;;;;;18.33;12.90;;;;;;;;;;5108129;28;20831;-68
2023/11/01 01:32:35;;;;;;;20.27;13.17;;;;;;;;;;5096320;28;20474;-68
2023/11/01 01:35:02;;;;;;;16.10;12.20;;;;;;;;;;5100820;28;20450;-67
2023/11/01 01:37:28;;;;;;;16.77;11.63;;;;;;;;;;5108320;28;20575;-68
2023/11/01 01:39:55;;;;;;;16.30;11.17;;;;;;;;;;5100459;28;20507;-66
2023/11/01 01:42:21;;;;;;;18.83;11.20;;;;;;;;;;5100046;28;20517;-68
2023/11/01 01:44:48;;;;;;;13.03;10.83;;;;;;;;;;5105581;28;20544;-68
2023/11/01 01:47:14;;;;;;;16.10;11.50;;;;;;;;;;5098416;28;20496;-68
2023/11/01 01:49:42;;;;;;;15.77;10.43;;;;;;;;;;5096478;28;20507;-68
2023/11/01 01:52:09;;;;;;;15.40;11.33;;;;;;;;;;5096181;28;20593;-68
2023/11/01 01:54:35;;;;;;;17.30;11.50;;;;;;;;;;5100235;28;20451;-67
2023/11/01 01:57:01;;;;;;;13.60;10.17;;;;;;;;;;5099709;28;20448;-68
2023/11/01 01:59:28;;;;;;;14.33;9.80;;;;;;;;;;5094898;28;20471;-67
2023/11/01 02:01:56;;;;;;;11.90;9.83;;;;;;;;;;5097081;28;20523;-67
2023/11/01 02:04:23;;;;;;;11.37;9.47;;;;;;;;;;5091756;28;20749;-67
2023/11/01 02:06:53;;;;;;;13.57;10.40;;;;;;;;;;5096006;28;20484;-67
2023/11/01 02:09:19;;;;;;;14.03;9.67;;;;;;;;;;5094022;28;20530;-67
2023/11/01 02:11:46;;;;;;;16.27;9.10;;;;;;;;;;5094096;28;20546;-68
2023/11/01 02:14:12;;;;;;;13.70;8.93;;;;;;;;;;5097252;28;20966;-68
2023/11/01 02:16:39;;;;;;;14.60;9.40;;;;;;;;;;5089599;28;20452;-67
2023/11/01 02:19:07;;;;;;;11.17;9.30;;;;;;;;;;5096698;28;20521;-68
2023/11/01 02:21:33;;;;;;;8.93;7.70;;;;;;;;;;5097262;28;20455;-69
2023/11/01 02:24:01;;;;;;;9.20;8.17;;;;;;;;;;5098833;28;20486;-68
2023/11/01 02:26:27;;;;;;;10.20;7.50;;;;;;;;;;5093465;28;20467;-68
2023/11/01 02:28:56;;;;;;;10.43;7.97;;;;;;;;;;5102070;28;20543;-68
2023/11/01 02:31:22;;;;;;;8.97;7.20;;;;;;;;;;5101878;28;20822;-68
2023/11/01 02:33:49;;;;;;;10.50;6.73;;;;;;;;;;5111246;28;20522;-68
2023/11/01 02:36:15;;;;;;;7.73;6.17;;;;;;;;;;5087488;28;20476;-69
2023/11/01 02:38:42;;;;;;;8.60;6.70;;;;;;;;;;5092846;28;20542;-67
2023/11/01 02:41:09;;;;;;;9.00;5.40;;;;;;;;;;5093456;28;20515;-68
2023/11/01 02:43:36;;;;;;;13.03;7.23;;;;;;;;;;5109540;28;20522;-68
2023/11/01 02:46:03;;;;;;;8.87;6.57;;;;;;;;;;5099857;28;20478;-67
2023/11/01 02:48:29;;;;;;;10.43;5.63;;;;;;;;;;5100670;28;20458;-67
2023/11/01 02:50:55;;;;;;;8.07;6.07;;;;;;;;;;5101551;28;20497;-66
2023/11/01 02:53:22;;;;;;;10.73;5.80;;;;;;;;;;5103855;28;20460;-67
2023/11/01 02:55:48;;;;;;;6.47;5.77;;;;;;;;;;5092039;28;20487;-67
2023/11/01 02:58:16;;;;;;;12.13;5.80;;;;;;;;;;5093767;28;20525;-68
2023/11/01 03:00:43;;;;;;;9.13;6.30;;;;;;;;;;5093073;28;20474;-68
2023/11/01 03:03:09;;;;;;;14.30;5.60;;;;;;;;;;5107797;28;20481;-67
2023/11/01 03:05:36;;;;;;;9.03;5.77;;;;;;;;;;5097335;28;20522;-68
2023/11/01 03:08:02;;;;;;;6.53;5.33;;;;;;;;;;5103315;28;21052;-67
2023/11/01 03:10:28;;;;;;;13.83;5.97;;;;;;;;;;5096608;28;20479;-67
2023/11/01 03:12:55;;;;;;;4.83;4.20;;;;;;;;;;5105582;28;20526;-67
2023/11/01 03:15:23;;;;;;;11.40;6.70;;;;;;;;;;5102804;28;20451;-68
2023/11/01 03:17:49;;;;;;;8.20;5.83;;;;;;;;;;5100560;28;20576;-68
2023/11/01 03:20:16;;;;;;;5.83;4.77;;;;;;;;;;5105240;28;20478;-68
2023/11/01 03:22:43;;;;;;;7.00;5.10;;;;;;;;;;5115775;28;20481;-68
2023/11/01 03:25:09;;;;;;;7.37;5.10;;;;;;;;;;5106051;28;20509;-69
2023/11/01 03:27:36;;;;;;;11.53;5.07;;;;;;;;;;5099956;28;20486;-69
2023/11/01 03:30:02;;;;;;;7.20;5.37;;;;;;;;;;5114716;28;20481;-69
2023/11/01 03:32:30;;;;;;;7.23;4.87;;;;;;;;;;5096732;28;20589;-68
2023/11/01 03:34:56;;;;;;;13.10;5.30;;;;;;;;;;5112474;28;20538;-69
2023/11/01 03:37:23;;;;;;;7.00;4.63;;;;;;;;;;5105198;28;20561;-69
2023/11/01 03:39:49;;;;;;;6.67;5.00;;;;;;;;;;5103439;28;20474;-65
2023/11/01 03:42:16;;;;;;;7.00;4.73;;;;;;;;;;5105076;28;20451;-65
2023/11/01 03:44:42;;;;;;;6.20;4.30;;;;;;;;;;5104271;28;20488;-65
2023/11/01 03:47:08;;;;;;;7.33;3.90;;;;;;;;;;5097687;28;20471;-65
2023/11/01 03:49:36;;;;;;;5.53;4.33;;;;;;;;;;5090410;28;20481;-65
2023/11/01 03:52:04;;;;;;;8.17;4.70;;;;;;;;;;5101994;28;20455;-66
2023/11/01 03:54:33;;;;;;;4.97;3.80;;;;;;;;;;5102768;28;20486;-65
2023/11/01 03:56:59;;;;;;;3.80;3.50;;;;;;;;;;5099636;28;20453;-65
2023/11/01 03:59:25;;;;;;;4.67;3.63;;;;;;;;;;5097724;28;20547;-66
2023/11/01 04:01:52;;;;;;;4.90;3.73;;;;;;;;;;5111264;28;20475;-65
2023/11/01 04:04:18;;;;;;;5.60;3.00;;;;;;;;;;5095189;28;20519;-66
2023/11/01 04:06:46;;;;;;;4.03;3.27;;;;;;;;;;5100788;28;21331;-65
2023/11/01 04:09:12;;;;;;;7.13;4.13;;;;;;;;;;5096480;28;20485;-65
2023/11/01 04:11:39;;;;;;;8.87;3.57;;;;;;;;;;5100915;28;20459;-65
2023/11/01 04:14:07;;;;;;;7.07;5.20;;;;;;;;;;5091022;28;20473;-65
2023/11/01 04:16:33;;;;;;;7.67;3.57;;;;;;;;;;5092822;28;20494;-66
2023/11/01 04:19:02;;;;;;;6.60;3.27;;;;;;;;;;5100772;28;20554;-65
2023/11/01 04:21:28;;;;;;;3.70;2.97;;;;;;;;;;5106047;28;20482;-66
2023/11/01 04:23:56;;;;;;;3.97;3.13;;;;;;;;;;5095970;28;20948;-65
2023/11/01 04:26:22;;;;;;;3.77;3.20;;;;;;;;;;5059085;28;20484;-65
2023/11/01 04:28:49;;;;;;;10.03;3.20;;;;;;;;;;5052987;28;20532;-65
2023/11/01 04:31:17;;;;;;;8.60;3.40;;;;;;;;;;5065058;28;20776;-65
2023/11/01 04:33:43;;;;;;;2.90;2.07;;;;;;;;;;5061562;28;20449;-65
2023/11/01 04:36:10;;;;;;;3.03;2.73;;;;;;;;;;5054858;28;20487;-66
2023/11/01 04:38:37;;;;;;;3.40;2.53;;;;;;;;;;5059055;28;20515;-65
2023/11/01 04:41:09;;;;;;;4.73;3.10;;;;;;;;;;5071554;28;20527;-65
2023/11/01 04:43:35;;;;;;;7.10;2.77;;;;;;;;;;5060457;28;20459;-65
2023/11/01 04:46:02;;;;;;;6.80;2.10;;;;;;;;;;5058335;28;20475;-65
2023/11/01 04:48:28;;;;;;;6.40;2.60;;;;;;;;;;5073831;28;20487;-65
2023/11/01 04:50:55;;;;;;;3.10;2.53;;;;;;;;;;5061766;28;20458;-65
2023/11/01 04:53:21;;;;;;;4.00;2.30;;;;;;;;;;5062008;28;20488;-65
2023/11/01 04:55:47;;;;;;;5.67;3.07;;;;;;;;;;5057078;28;21014;-65
2023/11/01 04:58:15;;;;;;;5.80;3.73;;;;;;;;;;5055857;28;21393;-65
2023/11/01 05:00:42;;;;;;;4.00;2.87;;;;;;;;;;5064841;28;20482;-64
2023/11/01 05:03:08;;;;;;;11.93;3.27;;;;;;;;;;5066316;28;20456;-65
2023/11/01 05:05:35;;;;;;;3.03;2.73;;;;;;;;;;5059012;28;20526;-65
2023/11/01 05:08:02;;;;;;;4.93;2.50;;;;;;;;;;5057677;28;20475;-65
2023/11/01 05:10:28;;;;;;;3.43;2.50;;;;;;;;;;5062600;28;20456;-65
2023/11/01 05:12:57;;;;;;;5.70;2.63;;;;;;;;;;5070322;28;20463;-65
2023/11/01 05:15:25;;;;;;;3.13;2.83;;;;;;;;;;5057689;28;20484;-65
2023/11/01 05:17:52;;;;;;;7.20;2.70;;;;;;;;;;5067056;28;20491;-65
2023/11/01 05:20:18;;;;;;;7.67;2.30;;;;;;;;;;5046013;28;20487;-65
2023/11/01 05:22:44;;;;;;;4.67;2.83;;;;;;;;;;5059862;28;20790;-65
2023/11/01 05:25:14;;;;;;;9.63;3.43;;;;;;;;;;5069096;28;20519;-65
2023/11/01 05:27:40;;;;;;;4.70;2.33;;;;;;;;;;5077201;28;20545;-65
2023/11/01 05:30:08;;;;;;;2.60;2.00;;;;;;;;;;5077517;28;20444;-65
2023/11/01 05:32:36;;;;;;;1.40;1.30;;;;;;;;;;5078231;28;20491;-65
2023/11/01 05:35:03;;;;;;;3.50;2.40;;;;;;;;;;5084036;28;20509;-65
2023/11/01 05:37:30;;;;;;;3.90;2.20;;;;;;;;;;5085872;28;20518;-66
2023/11/01 05:39:56;;;;;;;3.77;2.33;;;;;;;;;;5073114;28;20535;-66
2023/11/01 05:42:23;;;;;;;2.70;2.00;;;;;;;;;;5074706;28;20481;-66
2023/11/01 05:44:50;;;;;;;4.90;2.33;;;;;;;;;;5079617;28;20471;-66
2023/11/01 05:47:16;;;;;;;6.53;1.97;;;;;;;;;;5069101;28;20501;-66
2023/11/01 05:49:44;;;;;;;3.47;2.17;;;;;;;;;;5082232;28;20448;-66
2023/11/01 05:52:10;;;;;;;2.93;1.90;;;;;;;;;;5075793;28;20460;-66
2023/11/01 05:54:37;;;;;;;2.40;2.17;;;;;;;;;;5075630;28;20464;-66
2023/11/01 05:57:03;;;;;;;2.20;1.97;;;;;;;;;;5074842;28;20492;-66
2023/11/01 05:59:29;;;;;;;3.90;2.50;;;;;;;;;;5081013;28;20483;-66
2023/11/01 06:01:56;;;;;;;2.13;1.97;;;;;;;;;;5079510;28;20499;-66
2023/11/01 06:04:22;;;;;;;3.60;2.30;;;;;;;;;;5083505;28;20507;-65
2023/11/01 06:06:50;;;;;;;5.17;1.80;;;;;;;;;;5083426;28;20471;-65
2023/11/01 06:09:19;;;;;;;8.50;2.03;;;;;;;;;;5079246;28;20453;-65
2023/11/01 06:11:45;;;;;;;3.30;2.40;;;;;;;;;;5077484;28;20474;-65
2023/11/01 06:14:12;;;;;;;2.00;1.60;;;;;;;;;;5076852;28;20444;-65
2023/11/01 06:16:38;;;;;;;3.83;2.03;;;;;;;;;;5070290;28;20484;-65
2023/11/01 06:19:05;;;;;;;4.33;1.90;;;;;;;;;;5087331;28;20515;-65
2023/11/01 06:21:31;;;;;;;4.60;1.73;;;;;;;;;;5079051;28;20491;-66
2023/11/01 06:23:59;;;;;;;2.50;1.40;;;;;;;;;;5079662;28;20463;-66
2023/11/01 06:26:25;;;;;;;2.23;1.50;;;;;;;;;;5075145;28;20491;-65
2023/11/01 06:28:52;;;;;;;2.73;1.40;;;;;;;;;;5077773;28;20754;-66
2023/11/01 06:31:20;;;;;;;3.00;1.80;;;;;;;;;;5076594;28;20570;-66
2023/11/01 06:33:46;;;;;;;1.73;1.40;;;;;;;;;;5074065;28;20474;-66
2023/11/01 06:36:12;;;;;;;2.83;1.67;;;;;;;;;;5073100;28;20452;-66
2023/11/01 06:38:39;;;;;;;2.27;2.17;;;;;;;;;;5074014;28;20500;-66
2023/11/01 06:41:07;;;;;;;2.07;1.77;;;;;;;;;;5081567;28;21073;-66
2023/11/01 06:43:33;;;;;;;5.53;2.17;;;;;;;;;;5075318;28;20499;-66
2023/11/01 06:46:00;;;;;;;2.00;1.70;;;;;;;;;;5071635;28;20490;-66
2023/11/01 06:48:26;;;;;;;1.50;1.37;;;;;;;;;;5076089;28;20455;-66
2023/11/01 06:50:52;;;;;;;2.40;1.43;;;;;;;;;;5075445;28;20480;-66
2023/11/01 06:53:19;;;;;;;1.83;1.30;;;;;;;;;;5072277;28;20712;-66
2023/11/01 06:55:46;;;;;;;4.03;1.57;;;;;;;;;;5079688;28;20994;-65
2023/11/01 06:58:13;;;;;;;1.57;1.47;;;;;;;;;;5077356;28;20521;-66
2023/11/01 07:00:41;;;;;;;1.43;1.20;;;;;;;;;;5073041;28;20476;-66
2023/11/01 07:03:07;;;;;;;2.07;1.40;;;;;;;;;;5074551;28;20452;-66
2023/11/01 07:05:35;;;;;;;1.83;1.50;;;;;;;;;;5079198;28;20874;-66
2023/11/01 07:08:01;;;;;;;3.13;1.37;;;;;;;;;;5074585;28;20467;-66
2023/11/01 07:10:28;;;;;;;4.80;1.60;;;;;;;;;;5083819;28;20517;-65
2023/11/01 07:12:54;;;;;;;1.60;1.50;;;;;;;;;;5069577;28;20522;-66
2023/11/01 07:15:22;;;;;;;2.00;1.50;;;;;;;;;;5078092;28;20521;-65
2023/11/01 07:17:48;;;;;;;6.70;1.60;;;;;;;;;;5076615;28;20501;-66
2023/11/01 07:20:16;;;;;;;2.03;1.43;;;;;;;;;;5086030;28;20541;-66
2023/11/01 07:22:43;;;;;;;3.33;1.30;;;;;;;;;;5084516;28;20455;-65
2023/11/01 07:25:09;;;;;;;1.43;1.33;;;;;;;;;;5072758;28;20483;-66
2023/11/01 07:27:36;;;;;;;2.03;1.70;;;;;;;;;;5079743;28;21051;-65
2023/11/01 07:30:02;;;;;;;3.87;1.60;;;;;;;;;;5075867;28;20448;-66
2023/11/01 07:32:30;;;;;;;1.63;1.53;;;;;;;;;;5070085;28;20887;-65
2023/11/01 07:34:57;;;;;;;1.47;1.37;;;;;;;;;;5071092;28;20453;-66
2023/11/01 07:37:24;;;;;;;4.33;1.50;;;;;;;;;;5071911;28;20498;-66
2023/11/01 07:39:50;;;;;;;1.67;1.57;;;;;;;;;;5076925;28;20491;-65
2023/11/01 07:42:17;;;;;;;2.80;1.30;;;;;;;;;;5082541;28;20456;-65
2023/11/01 07:44:43;;;;;;;3.33;1.60;;;;;;;;;;5081954;28;20885;-66
2023/11/01 07:47:09;;;;;;;1.50;1.13;;;;;;;;;;5074214;28;20456;-65
2023/11/01 07:49:37;;;;;;;1.80;1.60;;;;;;;;;;5070297;28;20487;-66
2023/11/01 07:52:04;;;;;;;5.80;1.83;;;;;;;;;;5075189;28;20947;-66
2023/11/01 07:54:31;;;;;;;1.67;1.43;;;;;;;;;;5068730;28;20977;-66
2023/11/01 07:56:58;;;;;;;1.77;1.63;;;;;;;;;;5070851;28;20464;-66
2023/11/01 07:59:24;;;;;;;1.77;1.30;;;;;;;;;;5072615;28;20530;-65
2023/11/01 08:01:51;;;;;;;1.60;1.50;;;;;;;;;;5068290;28;21018;-66
2023/11/01 08:04:17;;;;;;;6.50;1.63;;;;;;;;;;5066374;28;21019;-66
2023/11/01 08:06:45;;;;;;;2.63;2.20;;;;;;;;;;5062870;28;20475;-66
2023/11/01 08:09:13;;;;;;;2.03;1.87;;;;;;;;;;5067619;28;20531;-66
2023/11/01 08:11:39;;;;;;;3.97;2.47;;;;;;;;;;5074098;28;20475;-66
2023/11/01 08:14:07;;;;;;;2.60;1.73;;;;;;;;;;5080146;28;20451;-65
2023/11/01 08:16:34;;;;;;;2.40;1.60;;;;;;;;;;5072929;28;20536;-66
2023/11/01 08:19:01;;;;;;;2.67;2.27;;;;;;;;;;5079760;28;20508;-66
2023/11/01 08:21:27;;;;;;;2.20;2.00;;;;;;;;;;5076903;28;20463;-66
2023/11/01 08:23:55;;;;;;;2.70;1.67;;;;;;;;;;5065924;28;20472;-66
2023/11/01 08:26:23;;;;;;;4.67;2.07;;;;;;;;;;5075980;28;20462;-66
2023/11/01 08:28:49;;;;;;;3.67;1.70;;;;;;;;;;5073066;28;20456;-66
2023/11/01 08:31:16;;;;;;;2.53;2.00;;;;;;;;;;5081074;28;20440;-65
2023/11/01 08:33:43;;;;;;;2.30;1.67;;;;;;;;;;5073832;28;20967;-66
2023/11/01 08:36:10;;;;;;;3.20;1.57;;;;;;;;;;5082649;28;20447;-66
2023/11/01 08:38:36;;;;;;;2.30;1.63;;;;;;;;;;5071451;28;21018;-65
2023/11/01 08:41:05;;;;;;;1.87;1.73;;;;;;;;;;5072151;28;20529;-66
2023/11/01 08:43:32;;;;;;;2.70;2.43;;;;;;;;;;5079389;28;20542;-66
2023/11/01 08:45:58;;;;;;;1.83;1.50;;;;;;;;;;5075139;28;21014;-66
2023/11/01 08:48:25;;;;;;;3.90;2.00;;;;;;;;;;5069610;28;20594;-66
2023/11/01 08:50:51;;;;;;;3.33;1.87;;;;;;;;;;5069102;28;20779;-66
2023/11/01 08:53:18;;;;;;;4.23;1.80;;;;;;;;;;5071742;28;20484;-67
2023/11/01 08:55:44;;;;;;;1.83;1.20;;;;;;;;;;5071876;28;20435;-66
2023/11/01 08:58:12;;;;;;;6.60;1.80;;;;;;;;;;5068954;28;20772;-66
2023/11/01 09:00:39;;;;;;;3.67;1.60;;;;;;;;;;5066237;28;20508;-66
2023/11/01 09:03:06;;;;;;;1.97;1.50;;;;;;;;;;5071522;28;20454;-66
2023/11/01 09:05:32;;;;;;;3.07;2.53;;;;;;;;;;5073452;28;20452;-66
2023/11/01 09:07:59;;;;;;;2.20;1.63;;;;;;;;;;5072343;28;20480;-66
2023/11/01 09:10:25;;;;;;;1.67;1.57;;;;;;;;;;5072916;28;20432;-66
2023/11/01 09:12:53;;;;;;;3.67;1.50;;;;;;;;;;5072112;28;20448;-67
2023/11/01 09:15:21;;;;;;;3.40;1.67;;;;;;;;;;5073709;28;20794;-66
2023/11/01 09:17:47;;;;;;;3.87;1.80;;;;;;;;;;5074113;28;20461;-66
2023/11/01 09:20:14;;;;;;;2.90;1.70;;;;;;;;;;5073561;28;20568;-66
2023/11/01 09:22:41;;;;;;;1.90;1.63;;;;;;;;;;5078108;28;20489;-66
2023/11/01 09:25:08;;;;;;;2.33;2.13;;;;;;;;;;5064761;28;20881;-65
2023/11/01 09:27:34;;;;;;;3.80;1.47;;;;;;;;;;5050535;28;20499;-66
2023/11/01 09:30:00;;;;;;;2.63;1.90;;;;;;;;;;5050273;28;20539;-66
2023/11/01 09:32:28;;;;;;;1.60;1.50;;;;;;;;;;5050213;28;20453;-65
2023/11/01 09:34:56;;;;;;;1.90;1.60;;;;;;;;;;5054896;28;20446;-66
2023/11/01 09:37:23;;;;;;;2.37;1.40;;;;;;;;;;5049811;28;20464;-66
2023/11/01 09:39:49;;;;;;;1.80;1.57;;;;;;;;;;5054695;28;20512;-66
2023/11/01 09:42:18;;;;;;;1.50;1.37;;;;;;;;;;5053486;28;20508;-66
2023/11/01 09:44:46;;;;;;;5.37;1.70;;;;;;;;;;5050571;28;20518;-66
2023/11/01 09:47:14;;;;;;;3.03;1.37;;;;;;;;;;5047431;28;20458;-66
2023/11/01 09:49:42;;;;;;;3.37;1.80;;;;;;;;;;5049960;28;20449;-66
2023/11/01 09:52:09;;;;;;;3.50;2.10;;;;;;;;;;5054142;28;20452;-66
2023/11/01 09:54:35;;;;;;;1.90;1.70;;;;;;;;;;5044986;28;20521;-66
2023/11/01 09:57:05;;;;;;;2.23;1.50;;;;;;;;;;5052843;28;20512;-66
2023/11/01 09:59:32;;;;;;;3.17;1.73;;;;;;;;;;5049861;28;20456;-66
2023/11/01 10:02:00;;;;;;;6.33;2.20;;;;;;;;;;5045969;28;20496;-66
2023/11/01 10:04:26;;;;;;;5.23;2.03;;;;;;;;;;5045427;28;20986;-66
2023/11/01 10:06:55;;;;;;;6.60;2.10;;;;;;;;;;5046994;28;20464;-72
2023/11/01 10:09:21;;;;;;;3.23;1.80;;;;;;;;;;5050426;28;20476;-72
2023/11/01 10:11:48;;;;;;;2.23;2.03;;;;;;;;;;5050130;28;20456;-72
2023/11/01 10:14:26;;;;;;;2.00;1.90;;;;;;;;;;5052037;28;20523;-74
2023/11/01 10:16:52;;;;;;;3.93;2.40;;;;;;;;;;5047598;28;20467;-75
2023/11/01 10:19:19;;;;;;;3.33;1.70;;;;;;;;;;5047889;28;20497;-70
2023/11/01 10:21:45;;;;;;;4.43;2.30;;;;;;;;;;5051241;28;20473;-70
2023/11/01 10:24:13;;;;;;;8.67;2.40;;;;;;;;;;5053260;28;20465;-71
2023/11/01 10:26:40;;;;;;;4.00;2.30;;;;;;;;;;5088057;28;20451;-70
2023/11/01 10:29:07;;;;;;;5.20;2.10;;;;;;;;;;5089787;28;20460;-70
2023/11/01 10:31:33;;;;;;;3.83;2.20;;;;;;;;;;5088984;28;20517;-72
2023/11/01 10:34:00;;;;;;;4.83;2.03;;;;;;;;;;5085985;28;20485;-72
2023/11/01 10:36:27;;;;;;;4.33;2.60;;;;;;;;;;5091226;28;20467;-74
2023/11/01 10:38:54;;;;;;;4.83;2.40;;;;;;;;;;5088699;28;20972;-73
2023/11/01 10:41:23;;;;;;;5.83;2.40;;;;;;;;;;5089940;28;20483;-72
2023/11/01 10:43:50;;;;;;;8.30;2.50;;;;;;;;;;5111818;28;20558;-72
2023/11/01 10:46:17;;;;;;;5.03;2.50;;;;;;;;;;5107395;28;20458;-73
2023/11/01 10:48:45;;;;;;;3.10;2.17;;;;;;;;;;5100780;28;20485;-71
2023/11/01 10:51:12;;;;;;;5.97;2.43;;;;;;;;;;5093631;28;20853;-70
2023/11/01 10:53:39;;;;;;;5.10;2.67;;;;;;;;;;5103527;28;20458;-69
2023/11/01 10:56:07;;;;;;;3.13;2.50;;;;;;;;;;5096747;28;20481;-69
2023/11/01 10:58:38;;;;;;;6.50;3.20;;;;;;;;;;5096232;28;20459;-69
2023/11/01 11:01:09;;;;;;;3.53;2.50;;;;;;;;;;5101825;28;21005;-71
2023/11/01 11:03:42;;;;;;;2.43;2.23;;;;;;;;;;5107291;28;20473;-71
2023/11/01 11:06:09;;;;;;;3.87;2.40;;;;;;;;;;5113398;28;20454;-69
2023/11/01 11:08:36;;;;;;;4.13;2.47;;;;;;;;;;5091731;28;20484;-68
2023/11/01 11:11:16;;;;;;;6.40;2.70;;;;;;;;;;5090633;28;20959;-68
2023/11/01 11:13:44;;;;;;;5.00;2.13;;;;;;;;;;5094657;28;20497;-68
2023/11/01 11:16:13;;;;;;;2.73;2.10;;;;;;;;;;5091352;28;20523;-68
2023/11/01 11:18:57;;;;;;;2.47;1.80;;;;;;;;;;5094806;28;20455;-68
2023/11/01 11:21:43;;;;;;;4.77;2.60;;;;;;;;;;5093630;28;20472;-68
2023/11/01 11:24:24;;;;;;;2.43;2.00;;;;;;;;;;5091770;28;20454;-68
2023/11/01 11:26:50;;;;;;;3.70;1.80;;;;;;;;;;5092476;28;20465;-68
2023/11/01 11:29:31;;;;;;;3.33;1.87;;;;;;;;;;5093686;28;20455;-68
2023/11/01 11:32:00;;;;;;;5.87;2.77;;;;;;;;;;5099658;28;20451;-68
2023/11/01 11:34:26;;;;;;;3.00;1.93;;;;;;;;;;5100316;28;20927;-68
2023/11/01 11:37:08;;;;;;;6.63;2.53;;;;;;;;;;5096489;28;20459;-70
2023/11/01 11:39:54;;;;;;;3.50;2.10;;;;;;;;;;5101300;28;20483;-68
2023/11/01 11:42:39;;;;;;;3.23;1.90;;;;;;;;;;5109601;28;20490;-69
2023/11/01 11:45:05;;;;;;;4.77;2.47;;;;;;;;;;5098076;28;20473;-68
2023/11/01 11:47:33;;;;;;;3.57;2.20;;;;;;;;;;5099700;28;20443;-70
2023/11/01 11:50:06;;;;;;;7.63;2.30;;;;;;;;;;5109330;28;20446;-69
2023/11/01 11:52:32;;;;;;;2.77;2.23;;;;;;;;;;5107249;28;20805;-69
2023/11/01 11:54:59;;;;;;;4.03;2.70;;;;;;;;;;5108428;28;20466;-70
2023/11/01 11:57:26;;;;;;;4.87;2.53;;;;;;;;;;5104750;28;20900;-69
2023/11/01 12:00:00;;;;;;;5.60;3.03;;;;;;;;;;5115411;28;20450;-70
2023/11/01 12:02:27;;;;;;;2.80;2.50;;;;;;;;;;5113245;28;20486;-70
2023/11/01 12:04:55;;;;;;;2.57;2.37;;;;;;;;;;5107415;28;20487;-69
2023/11/01 12:07:23;;;;;;;4.97;2.87;;;;;;;;;;5097799;28;20454;-70
2023/11/01 12:09:50;;;;;;;7.30;3.20;;;;;;;;;;5099313;28;20472;-65
2023/11/01 12:12:16;;;;;;;2.40;2.20;;;;;;;;;;5097725;28;20446;-70
2023/11/01 12:14:44;;;;;;;3.37;2.30;;;;;;;;;;5109439;28;20476;-65
2023/11/01 12:17:11;;;;;;;2.57;2.37;;;;;;;;;;5106397;28;20465;-65
2023/11/01 12:19:43;;;;;;;2.50;2.40;;;;;;;;;;5107097;28;20455;-64
2023/11/01 12:22:11;;;;;;;3.03;2.23;;;;;;;;;;5098070;28;20513;-65
2023/11/01 12:24:41;;;;;;;6.30;2.57;;;;;;;;;;5108973;28;20851;-65
2023/11/01 12:27:09;;;;;;;3.30;3.10;;;;;;;;;;5101924;28;20493;-66
2023/11/01 12:29:44;;;;;;;2.20;2.00;;;;;;;;;;5100503;28;20459;-64
2023/11/01 12:32:10;;;;;;;4.17;2.60;;;;;;;;;;5099100;28;20458;-65
2023/11/01 12:34:38;;;;;;;3.00;2.40;;;;;;;;;;5100967;28;20907;-65
2023/11/01 12:37:05;;;;;;;6.63;2.43;;;;;;;;;;5097930;28;20451;-64
2023/11/01 12:39:34;;;;;;;2.83;2.37;;;;;;;;;;5096238;28;20444;-64
2023/11/01 12:42:20;;;;;;;3.73;1.87;;;;;;;;;;5103944;28;20520;-64
2023/11/01 12:44:47;;;;;;;3.63;1.80;;;;;;;;;;5090515;28;20527;-64
2023/11/01 12:47:14;;;;;;;7.07;2.10;;;;;;;;;;5095593;28;20497;-64
2023/11/01 12:49:40;;;;;;;4.50;2.10;;;;;;;;;;5097363;28;20530;-64
2023/11/01 12:52:08;;;;;;;5.30;2.37;;;;;;;;;;5095606;28;20435;-65
2023/11/01 12:54:36;;;;;;;3.63;2.83;;;;;;;;;;5106887;28;20500;-64
2023/11/01 12:57:02;;;;;;;3.30;3.00;;;;;;;;;;5098495;28;20514;-64
2023/11/01 12:59:29;;;;;;;4.90;2.73;;;;;;;;;;5104110;28;20455;-64
2023/11/01 13:01:55;;;;;;;5.30;3.23;;;;;;;;;;5093262;28;20513;-66
2023/11/01 13:04:21;;;;;;;4.50;2.37;;;;;;;;;;5096259;28;20451;-67
2023/11/01 13:06:48;;;;;;;9.60;2.60;;;;;;;;;;5098357;28;20453;-68
2023/11/01 13:09:14;;;;;;;3.57;2.20;;;;;;;;;;5102130;28;20450;-67
2023/11/01 13:11:42;;;;;;;3.37;2.30;;;;;;;;;;5100371;28;20455;-67
2023/11/01 13:14:09;;;;;;;6.70;3.47;;;;;;;;;;5100397;28;21200;-68
2023/11/01 13:16:36;;;;;;;2.70;2.50;;;;;;;;;;5100559;28;20539;-69
2023/11/01 13:19:03;;;;;;;3.77;2.30;;;;;;;;;;5096471;28;20451;-68
2023/11/01 13:21:30;;;;;;;4.80;2.53;;;;;;;;;;5097114;28;20483;-68
2023/11/01 13:23:56;;;;;;;7.90;2.73;;;;;;;;;;5093729;28;20466;-69
2023/11/01 13:26:23;;;;;;;3.50;2.40;;;;;;;;;;5097843;28;20451;-70
2023/11/01 13:28:51;;;;;;;4.60;2.37;;;;;;;;;;5098586;28;20496;-69
2023/11/01 13:31:18;;;;;;;4.30;2.77;;;;;;;;;;5101449;28;20443;-69
2023/11/01 13:33:44;;;;;;;2.50;2.20;;;;;;;;;;5104707;28;20457;-71
2023/11/01 13:36:11;;;;;;;4.23;2.57;;;;;;;;;;5096631;28;20451;-72
2023/11/01 13:38:38;;;;;;;3.57;2.87;;;;;;;;;;5102632;28;20478;-73
2023/11/01 13:41:05;;;;;;;3.00;2.57;;;;;;;;;;5099548;28;20482;-72
2023/11/01 13:43:34;;;;;;;3.17;2.87;;;;;;;;;;5089987;28;20462;-72
2023/11/01 13:46:02;;;;;;;4.20;2.73;;;;;;;;;;5095326;28;20456;-77
2023/11/01 13:48:29;;;;;;;5.57;3.20;;;;;;;;;;5102664;28;20451;-78
2023/11/01 13:50:56;;;;;;;4.50;2.20;;;;;;;;;;5110277;28;20503;-76
2023/11/01 13:53:23;;;;;;;3.00;2.23;;;;;;;;;;5099952;28;20482;-71
2023/11/01 13:55:49;;;;;;;3.50;2.33;;;;;;;;;;5089025;28;20462;-73
2023/11/01 13:58:16;;;;;;;5.40;2.60;;;;;;;;;;5096582;28;20451;-70
2023/11/01 14:00:43;;;;;;;5.20;3.10;;;;;;;;;;5102292;28;20485;-72
2023/11/01 14:03:11;;;;;;;2.83;2.53;;;;;;;;;;5093708;28;20493;-73
2023/11/01 14:05:38;;;;;;;3.97;2.33;;;;;;;;;;5094877;28;21057;-75
2023/11/01 14:08:05;;;;;;;3.13;2.60;;;;;;;;;;5093999;28;20444;-75
2023/11/01 14:10:32;;;;;;;3.00;2.50;;;;;;;;;;5097028;28;20475;-71
2023/11/01 14:13:02;;;;;;;3.53;2.93;;;;;;;;;;5101577;28;20447;-72
2023/11/01 14:15:29;;;;;;;7.00;3.67;;;;;;;;;;5093803;28;20460;-72
2023/11/01 14:17:55;;;;;;;4.37;2.73;;;;;;;;;;5099174;28;20479;-72
2023/11/01 14:20:23;;;;;;;3.33;2.73;;;;;;;;;;5098460;28;20614;-75
2023/11/01 14:22:51;;;;;;;4.13;2.63;;;;;;;;;;5099130;28;20495;-76
2023/11/01 14:25:18;;;;;;;5.13;2.37;;;;;;;;;;5093498;28;20489;-74
2023/11/01 14:27:46;;;;;;;4.90;2.30;;;;;;;;;;5104695;28;20478;-75
2023/11/01 14:30:15;;;;;;;2.67;2.20;;;;;;;;;;5104455;28;20450;-76
2023/11/01 14:32:41;;;;;;;2.67;2.47;;;;;;;;;;5099549;28;20459;-75
2023/11/01 14:35:09;;;;;;;4.33;3.00;;;;;;;;;;5098783;28;20461;-76
2023/11/01 14:37:36;;;;;;;6.67;3.00;;;;;;;;;;5109732;28;20454;-76
2023/11/01 14:40:06;;;;;;;3.03;2.73;;;;;;;;;;5091174;28;20456;-75
2023/11/01 14:42:33;;;;;;;3.63;2.40;;;;;;;;;;5102104;28;20572;-76